sensor_id;sensor_type;location;lat;lon;timestamp;pressure;altitude;pressure_sealevel;temperature;humidity
45991;BME280;31721;41.740;-88.000;2023-04-01T00:01:52;96759.63;;;16.22;72.20
45991;BME280;31721;41.740;-88.000;2023-04-01T00:04:20;96757.44;;;16.37;71.53
45991;BME280;31721;41.740;-88.000;2023-04-01T00:06:48;96750.48;;;16.38;71.54
45991;BME280;31721;41.740;-88.000;2023-04-01T00:09:16;96754.23;;;16.53;71.62
45991;BME280;31721;41.740;-88.000;2023-04-01T00:11:44;96755.64;;;16.66;71.64
45991;BME280;31721;41.740;-88.000;2023-04-01T00:14:12;96741.75;;;17.05;70.02
45991;BME280;31721;41.740;-88.000;2023-04-01T00:16:39;96736.15;;;16.90;70.37
45991;BME280;31721;41.740;-88.000;2023-04-01T00:19:07;96720.90;;;17.02;69.94
45991;BME280;31721;41.740;-88.000;2023-04-01T00:21:35;96679.58;;;17.25;69.05
45991;BME280;31721;41.740;-88.000;2023-04-01T00:24:03;96687.76;;;16.98;69.58
45991;BME280;31721;41.740;-88.000;2023-04-01T00:26:30;96703.00;;;17.23;68.99
45991;BME280;31721;41.740;-88.000;2023-04-01T00:28:59;96712.05;;;16.97;70.07
45991;BME280;31721;41.740;-88.000;2023-04-01T00:31:27;96701.74;;;17.08;70.00
45991;BME280;31721;41.740;-88.000;2023-04-01T00:33:55;96719.57;;;17.24;69.48
45991;BME280;31721;41.740;-88.000;2023-04-01T00:36:23;96736.43;;;17.06;69.59
45991;BME280;31721;41.740;-88.000;2023-04-01T00:38:51;96732.29;;;17.17;69.19
45991;BME280;31721;41.740;-88.000;2023-04-01T00:41:20;96683.45;;;17.05;69.71
45991;BME280;31721;41.740;-88.000;2023-04-01T00:43:49;96626.45;;;17.06;69.94
45991;BME280;31721;41.740;-88.000;2023-04-01T00:46:18;96615.51;;;17.09;69.83
45991;BME280;31721;41.740;-88.000;2023-04-01T00:48:49;96607.86;;;17.00;69.75
45991;BME280;31721;41.740;-88.000;2023-04-01T00:51:21;96601.40;;;16.52;71.49
45991;BME280;31721;41.740;-88.000;2023-04-01T00:53:53;96567.94;;;16.79;71.32
45991;BME280;31721;41.740;-88.000;2023-04-01T00:56:24;96530.72;;;16.74;71.07
45991;BME280;31721;41.740;-88.000;2023-04-01T00:58:56;96523.78;;;16.75;71.22
45991;BME280;31721;41.740;-88.000;2023-04-01T01:01:26;96544.24;;;16.79;71.53
45991;BME280;31721;41.740;-88.000;2023-04-01T01:03:55;96577.51;;;16.53;72.22
45991;BME280;31721;41.740;-88.000;2023-04-01T01:06:30;96579.62;;;16.58;71.72
45991;BME280;31721;41.740;-88.000;2023-04-01T01:09:11;96568.79;;;16.64;71.12
45991;BME280;31721;41.740;-88.000;2023-04-01T01:11:43;96576.68;;;16.42;70.16
45991;BME280;31721;41.740;-88.000;2023-04-01T01:14:27;96584.21;;;16.16;70.50
45991;BME280;31721;41.740;-88.000;2023-04-01T01:17:05;96815.67;;;17.14;67.82
45991;BME280;31721;41.740;-88.000;2023-04-01T01:19:51;96945.53;;;17.00;56.46
45991;BME280;31721;41.740;-88.000;2023-04-01T01:22:34;96952.10;;;15.83;58.51
45991;BME280;31721;41.740;-88.000;2023-04-01T01:25:18;96949.27;;;14.93;61.17
45991;BME280;31721;41.740;-88.000;2023-04-01T01:27:56;96958.36;;;14.48;61.42
45991;BME280;31721;41.740;-88.000;2023-04-01T01:30:37;96928.66;;;13.78;63.22
45991;BME280;31721;41.740;-88.000;2023-04-01T01:33:25;96895.29;;;13.40;64.86
45991;BME280;31721;41.740;-88.000;2023-04-01T01:36:04;96876.70;;;13.10;64.58
45991;BME280;31721;41.740;-88.000;2023-04-01T01:38:34;96890.52;;;12.36;65.26
45991;BME280;31721;41.740;-88.000;2023-04-01T01:41:04;96895.75;;;11.66;66.34
45991;BME280;31721;41.740;-88.000;2023-04-01T01:43:36;96889.61;;;12.27;65.26
45991;BME280;31721;41.740;-88.000;2023-04-01T01:46:08;96910.90;;;11.66;66.29
45991;BME280;31721;41.740;-88.000;2023-04-01T01:48:39;96896.00;;;11.93;65.66
45991;BME280;31721;41.740;-88.000;2023-04-01T01:51:09;96877.38;;;11.67;66.33
45991;BME280;31721;41.740;-88.000;2023-04-01T01:53:37;96877.18;;;11.77;65.95
45991;BME280;31721;41.740;-88.000;2023-04-01T01:56:05;96894.63;;;11.47;65.29
45991;BME280;31721;41.740;-88.000;2023-04-01T01:58:35;96928.15;;;11.85;65.36
45991;BME280;31721;41.740;-88.000;2023-04-01T02:01:07;96930.85;;;12.23;63.74
45991;BME280;31721;41.740;-88.000;2023-04-01T02:03:37;96920.48;;;12.26;63.56
45991;BME280;31721;41.740;-88.000;2023-04-01T02:06:10;96873.97;;;12.24;63.46
45991;BME280;31721;41.740;-88.000;2023-04-01T02:08:41;96870.84;;;12.06;63.02
45991;BME280;31721;41.740;-88.000;2023-04-01T02:11:12;96834.80;;;12.24;63.73
45991;BME280;31721;41.740;-88.000;2023-04-01T02:13:44;96819.42;;;12.18;63.70
45991;BME280;31721;41.740;-88.000;2023-04-01T02:16:20;96827.65;;;12.52;62.61
45991;BME280;31721;41.740;-88.000;2023-04-01T02:18:52;96832.02;;;12.73;61.16
45991;BME280;31721;41.740;-88.000;2023-04-01T02:21:24;96831.95;;;12.52;62.01
45991;BME280;31721;41.740;-88.000;2023-04-01T02:23:54;96818.84;;;12.42;62.60
45991;BME280;31721;41.740;-88.000;2023-04-01T02:26:23;96815.50;;;12.53;62.19
45991;BME280;31721;41.740;-88.000;2023-04-01T02:28:53;96804.93;;;12.61;61.95
45991;BME280;31721;41.740;-88.000;2023-04-01T02:31:21;96799.64;;;12.58;62.24
45991;BME280;31721;41.740;-88.000;2023-04-01T02:33:51;96800.40;;;12.88;60.27
45991;BME280;31721;41.740;-88.000;2023-04-01T02:36:20;96818.31;;;13.02;60.24
45991;BME280;31721;41.740;-88.000;2023-04-01T02:38:48;96826.21;;;13.06;59.48
45991;BME280;31721;41.740;-88.000;2023-04-01T02:41:16;96834.77;;;13.16;59.04
45991;BME280;31721;41.740;-88.000;2023-04-01T02:43:44;96848.99;;;13.19;58.67
45991;BME280;31721;41.740;-88.000;2023-04-01T02:46:12;96863.60;;;13.24;58.48
45991;BME280;31721;41.740;-88.000;2023-04-01T02:48:40;96864.01;;;13.18;58.57
45991;BME280;31721;41.740;-88.000;2023-04-01T02:51:08;96879.20;;;13.05;58.79
45991;BME280;31721;41.740;-88.000;2023-04-01T02:53:36;96874.94;;;12.80;59.43
45991;BME280;31721;41.740;-88.000;2023-04-01T02:56:05;96851.10;;;12.53;59.58
45991;BME280;31721;41.740;-88.000;2023-04-01T02:58:32;96859.43;;;12.56;60.17
45991;BME280;31721;41.740;-88.000;2023-04-01T03:01:00;96857.26;;;12.55;60.08
45991;BME280;31721;41.740;-88.000;2023-04-01T03:03:28;96864.09;;;12.67;60.57
45991;BME280;31721;41.740;-88.000;2023-04-01T03:05:56;96864.45;;;12.86;60.37
45991;BME280;31721;41.740;-88.000;2023-04-01T03:08:24;96854.71;;;12.72;60.80
45991;BME280;31721;41.740;-88.000;2023-04-01T03:10:52;96844.34;;;12.82;60.89
45991;BME280;31721;41.740;-88.000;2023-04-01T03:13:20;96850.85;;;12.81;60.72
45991;BME280;31721;41.740;-88.000;2023-04-01T03:15:48;96855.16;;;12.50;61.26
45991;BME280;31721;41.740;-88.000;2023-04-01T03:18:16;96853.06;;;12.25;61.56
45991;BME280;31721;41.740;-88.000;2023-04-01T03:20:44;96855.86;;;12.49;61.45
45991;BME280;31721;41.740;-88.000;2023-04-01T03:23:12;96847.05;;;12.37;61.60
45991;BME280;31721;41.740;-88.000;2023-04-01T03:25:41;96849.97;;;12.31;61.61
45991;BME280;31721;41.740;-88.000;2023-04-01T03:28:09;96865.42;;;12.34;62.04
45991;BME280;31721;41.740;-88.000;2023-04-01T03:30:37;96887.63;;;12.13;62.02
45991;BME280;31721;41.740;-88.000;2023-04-01T03:33:06;96906.47;;;11.96;62.39
45991;BME280;31721;41.740;-88.000;2023-04-01T03:35:34;96905.48;;;12.01;61.93
45991;BME280;31721;41.740;-88.000;2023-04-01T03:38:02;96909.30;;;11.97;62.44
45991;BME280;31721;41.740;-88.000;2023-04-01T03:40:29;96922.87;;;11.98;62.49
45991;BME280;31721;41.740;-88.000;2023-04-01T03:42:57;96919.37;;;11.97;62.47
45991;BME280;31721;41.740;-88.000;2023-04-01T03:45:26;96936.79;;;12.25;61.82
45991;BME280;31721;41.740;-88.000;2023-04-01T03:47:54;96945.50;;;12.26;61.88
45991;BME280;31721;41.740;-88.000;2023-04-01T03:50:22;96974.63;;;11.97;62.21
45991;BME280;31721;41.740;-88.000;2023-04-01T03:52:50;96981.27;;;11.98;62.22
45991;BME280;31721;41.740;-88.000;2023-04-01T03:55:18;96990.22;;;11.90;62.44
45991;BME280;31721;41.740;-88.000;2023-04-01T03:57:46;96995.92;;;12.24;62.08
45991;BME280;31721;41.740;-88.000;2023-04-01T04:00:14;97006.38;;;12.15;62.21
45991;BME280;31721;41.740;-88.000;2023-04-01T04:02:42;97003.58;;;12.11;62.33
45991;BME280;31721;41.740;-88.000;2023-04-01T04:05:10;97024.38;;;11.94;62.69
45991;BME280;31721;41.740;-88.000;2023-04-01T04:07:38;97039.93;;;11.83;62.79
45991;BME280;31721;41.740;-88.000;2023-04-01T04:10:07;97047.42;;;11.78;62.90
45991;BME280;31721;41.740;-88.000;2023-04-01T04:12:34;97056.03;;;11.63;62.79
45991;BME280;31721;41.740;-88.000;2023-04-01T04:15:03;97059.00;;;11.51;62.81
45991;BME280;31721;41.740;-88.000;2023-04-01T04:17:31;97057.00;;;11.66;62.40
45991;BME280;31721;41.740;-88.000;2023-04-01T04:19:59;97051.38;;;11.36;62.29
45991;BME280;31721;41.740;-88.000;2023-04-01T04:22:27;97050.59;;;11.29;62.20
45991;BME280;31721;41.740;-88.000;2023-04-01T04:24:55;97049.79;;;11.27;61.49
45991;BME280;31721;41.740;-88.000;2023-04-01T04:27:23;97048.47;;;11.20;61.40
45991;BME280;31721;41.740;-88.000;2023-04-01T04:29:51;97048.48;;;11.22;60.63
45991;BME280;31721;41.740;-88.000;2023-04-01T04:32:19;97054.81;;;11.25;60.31
45991;BME280;31721;41.740;-88.000;2023-04-01T04:34:47;97059.75;;;10.99;59.10
45991;BME280;31721;41.740;-88.000;2023-04-01T04:37:15;97063.20;;;10.97;58.11
45991;BME280;31721;41.740;-88.000;2023-04-01T04:39:43;97051.10;;;10.89;54.50
45991;BME280;31721;41.740;-88.000;2023-04-01T04:42:10;97063.66;;;10.84;54.17
45991;BME280;31721;41.740;-88.000;2023-04-01T04:44:39;97068.94;;;10.85;52.38
45991;BME280;31721;41.740;-88.000;2023-04-01T04:47:07;97078.21;;;10.58;53.87
45991;BME280;31721;41.740;-88.000;2023-04-01T04:49:35;97083.52;;;10.55;52.52
45991;BME280;31721;41.740;-88.000;2023-04-01T04:52:03;97070.99;;;10.28;53.46
45991;BME280;31721;41.740;-88.000;2023-04-01T04:54:31;97086.13;;;10.50;51.08
45991;BME280;31721;41.740;-88.000;2023-04-01T04:56:59;97083.55;;;10.60;49.66
45991;BME280;31721;41.740;-88.000;2023-04-01T04:59:27;97092.12;;;10.42;51.64
45991;BME280;31721;41.740;-88.000;2023-04-01T05:01:55;97081.23;;;10.30;50.29
45991;BME280;31721;41.740;-88.000;2023-04-01T05:04:23;97086.64;;;10.38;49.24
45991;BME280;31721;41.740;-88.000;2023-04-01T05:06:51;97098.24;;;10.24;50.28
45991;BME280;31721;41.740;-88.000;2023-04-01T05:09:19;97102.04;;;10.21;50.63
45991;BME280;31721;41.740;-88.000;2023-04-01T05:11:47;97101.10;;;10.25;50.22
45991;BME280;31721;41.740;-88.000;2023-04-01T05:14:16;97094.00;;;10.20;50.03
45991;BME280;31721;41.740;-88.000;2023-04-01T05:16:44;97103.10;;;10.01;50.53
45991;BME280;31721;41.740;-88.000;2023-04-01T05:19:12;97088.96;;;9.85;50.15
45991;BME280;31721;41.740;-88.000;2023-04-01T05:21:40;97088.63;;;9.72;50.24
45991;BME280;31721;41.740;-88.000;2023-04-01T05:24:09;97109.23;;;9.53;50.68
45991;BME280;31721;41.740;-88.000;2023-04-01T05:26:37;97101.26;;;9.47;49.89
45991;BME280;31721;41.740;-88.000;2023-04-01T05:29:06;97116.52;;;9.31;50.78
45991;BME280;31721;41.740;-88.000;2023-04-01T05:31:34;97117.53;;;8.89;51.63
45991;BME280;31721;41.740;-88.000;2023-04-01T05:34:02;97116.32;;;8.96;51.14
45991;BME280;31721;41.740;-88.000;2023-04-01T05:36:30;97121.97;;;9.08;51.17
45991;BME280;31721;41.740;-88.000;2023-04-01T05:38:57;97121.53;;;8.92;51.15
45991;BME280;31721;41.740;-88.000;2023-04-01T05:41:26;97115.93;;;8.88;51.60
45991;BME280;31721;41.740;-88.000;2023-04-01T05:43:54;97116.34;;;8.60;51.96
45991;BME280;31721;41.740;-88.000;2023-04-01T05:46:22;97114.32;;;8.58;52.08
45991;BME280;31721;41.740;-88.000;2023-04-01T05:48:49;97105.25;;;8.69;52.12
45991;BME280;31721;41.740;-88.000;2023-04-01T05:51:17;97094.32;;;8.54;52.25
45991;BME280;31721;41.740;-88.000;2023-04-01T05:53:45;97092.30;;;8.63;52.35
45991;BME280;31721;41.740;-88.000;2023-04-01T05:56:12;97089.43;;;8.65;52.21
45991;BME280;31721;41.740;-88.000;2023-04-01T05:58:40;97071.83;;;8.21;53.14
45991;BME280;31721;41.740;-88.000;2023-04-01T06:01:10;97077.39;;;8.49;52.07
45991;BME280;31721;41.740;-88.000;2023-04-01T06:03:38;97070.24;;;8.30;52.04
45991;BME280;31721;41.740;-88.000;2023-04-01T06:06:13;97067.92;;;8.44;51.85
45991;BME280;31721;41.740;-88.000;2023-04-01T06:08:41;97056.22;;;8.25;51.91
45991;BME280;31721;41.740;-88.000;2023-04-01T06:11:19;97064.14;;;8.04;51.90
45991;BME280;31721;41.740;-88.000;2023-04-01T06:14:03;97054.87;;;8.09;51.57
45991;BME280;31721;41.740;-88.000;2023-04-01T06:16:44;97054.43;;;8.29;50.90
45991;BME280;31721;41.740;-88.000;2023-04-01T06:19:24;97043.26;;;7.72;52.02
45991;BME280;31721;41.740;-88.000;2023-04-01T06:22:17;97037.98;;;7.98;51.25
45991;BME280;31721;41.740;-88.000;2023-04-01T06:25:00;97027.94;;;7.68;51.67
45991;BME280;31721;41.740;-88.000;2023-04-01T06:27:45;97036.75;;;7.87;52.14
45991;BME280;31721;41.740;-88.000;2023-04-01T06:30:32;97033.86;;;8.10;51.13
45991;BME280;31721;41.740;-88.000;2023-04-01T06:33:11;97030.14;;;8.04;51.36
45991;BME280;31721;41.740;-88.000;2023-04-01T06:35:52;97028.50;;;8.10;51.13
45991;BME280;31721;41.740;-88.000;2023-04-01T06:38:40;97020.49;;;7.76;51.69
45991;BME280;31721;41.740;-88.000;2023-04-01T06:41:29;97011.71;;;8.04;51.26
45991;BME280;31721;41.740;-88.000;2023-04-01T06:44:13;97012.59;;;8.00;51.15
45991;BME280;31721;41.740;-88.000;2023-04-01T06:46:46;96997.23;;;8.29;49.93
45991;BME280;31721;41.740;-88.000;2023-04-01T06:49:33;97001.45;;;8.26;50.08
45991;BME280;31721;41.740;-88.000;2023-04-01T06:52:12;96999.14;;;8.00;50.53
45991;BME280;31721;41.740;-88.000;2023-04-01T06:54:46;97001.31;;;7.96;51.20
45991;BME280;31721;41.740;-88.000;2023-04-01T06:57:23;96997.39;;;8.08;50.40
45991;BME280;31721;41.740;-88.000;2023-04-01T06:59:53;96995.87;;;8.17;50.32
45991;BME280;31721;41.740;-88.000;2023-04-01T07:02:28;96993.41;;;8.00;50.49
45991;BME280;31721;41.740;-88.000;2023-04-01T07:04:59;96998.47;;;7.94;50.55
45991;BME280;31721;41.740;-88.000;2023-04-01T07:07:33;96994.62;;;8.01;50.60
45991;BME280;31721;41.740;-88.000;2023-04-01T07:10:05;96988.67;;;7.81;50.65
45991;BME280;31721;41.740;-88.000;2023-04-01T07:12:43;96985.05;;;7.70;50.62
45991;BME280;31721;41.740;-88.000;2023-04-01T07:15:18;96976.67;;;7.66;50.72
45991;BME280;31721;41.740;-88.000;2023-04-01T07:17:50;96969.77;;;7.74;50.57
45991;BME280;31721;41.740;-88.000;2023-04-01T07:20:23;96964.27;;;7.52;50.81
45991;BME280;31721;41.740;-88.000;2023-04-01T07:22:55;96981.90;;;7.46;51.45
45991;BME280;31721;41.740;-88.000;2023-04-01T07:25:27;96981.17;;;7.46;51.64
45991;BME280;31721;41.740;-88.000;2023-04-01T07:27:59;96984.31;;;7.46;52.17
45991;BME280;31721;41.740;-88.000;2023-04-01T07:30:33;96985.20;;;7.39;52.47
45991;BME280;31721;41.740;-88.000;2023-04-01T07:33:12;96999.65;;;7.61;52.74
45991;BME280;31721;41.740;-88.000;2023-04-01T07:35:47;96994.46;;;7.52;52.83
45991;BME280;31721;41.740;-88.000;2023-04-01T07:38:28;96994.05;;;7.45;52.74
45991;BME280;31721;41.740;-88.000;2023-04-01T07:41:06;96990.01;;;7.34;52.53
45991;BME280;31721;41.740;-88.000;2023-04-01T07:43:50;96988.08;;;7.36;52.13
45991;BME280;31721;41.740;-88.000;2023-04-01T07:46:32;96988.49;;;7.30;52.18
45991;BME280;31721;41.740;-88.000;2023-04-01T07:49:10;96982.36;;;7.18;52.12
45991;BME280;31721;41.740;-88.000;2023-04-01T07:51:45;96978.48;;;7.08;52.39
45991;BME280;31721;41.740;-88.000;2023-04-01T07:54:24;96983.17;;;7.21;52.23
45991;BME280;31721;41.740;-88.000;2023-04-01T07:56:58;96987.07;;;7.03;52.34
45991;BME280;31721;41.740;-88.000;2023-04-01T07:59:35;96983.40;;;7.01;52.48
45991;BME280;31721;41.740;-88.000;2023-04-01T08:02:15;96978.87;;;7.04;52.60
45991;BME280;31721;41.740;-88.000;2023-04-01T08:04:59;96973.95;;;6.73;52.90
45991;BME280;31721;41.740;-88.000;2023-04-01T08:07:38;96969.70;;;6.61;53.38
45991;BME280;31721;41.740;-88.000;2023-04-01T08:10:14;96972.08;;;6.76;53.39
45991;BME280;31721;41.740;-88.000;2023-04-01T08:12:52;96970.68;;;6.81;53.37
45991;BME280;31721;41.740;-88.000;2023-04-01T08:15:27;96966.25;;;6.61;53.24
45991;BME280;31721;41.740;-88.000;2023-04-01T08:18:05;96958.08;;;6.61;53.83
45991;BME280;31721;41.740;-88.000;2023-04-01T08:20:41;96952.04;;;6.80;53.71
45991;BME280;31721;41.740;-88.000;2023-04-01T08:23:15;96949.92;;;6.83;53.77
45991;BME280;31721;41.740;-88.000;2023-04-01T08:25:50;96944.90;;;6.48;53.74
45991;BME280;31721;41.740;-88.000;2023-04-01T08:28:24;96943.85;;;6.77;53.62
45991;BME280;31721;41.740;-88.000;2023-04-01T08:31:00;96941.73;;;6.56;53.73
45991;BME280;31721;41.740;-88.000;2023-04-01T08:33:29;96937.96;;;6.84;53.54
45991;BME280;31721;41.740;-88.000;2023-04-01T08:36:03;96938.96;;;6.79;53.49
45991;BME280;31721;41.740;-88.000;2023-04-01T08:38:39;96936.89;;;6.82;53.53
45991;BME280;31721;41.740;-88.000;2023-04-01T08:41:33;96927.19;;;6.68;53.27
45991;BME280;31721;41.740;-88.000;2023-04-01T08:44:22;96919.68;;;6.65;53.42
45991;BME280;31721;41.740;-88.000;2023-04-01T08:47:19;96925.36;;;6.65;53.42
45991;BME280;31721;41.740;-88.000;2023-04-01T08:50:07;96926.59;;;6.68;53.60
45991;BME280;31721;41.740;-88.000;2023-04-01T08:52:50;96923.69;;;6.88;52.72
45991;BME280;31721;41.740;-88.000;2023-04-01T08:55:35;96911.30;;;6.77;52.72
45991;BME280;31721;41.740;-88.000;2023-04-01T08:58:20;96909.23;;;6.65;52.71
45991;BME280;31721;41.740;-88.000;2023-04-01T09:00:54;96904.93;;;6.36;53.21
45991;BME280;31721;41.740;-88.000;2023-04-01T09:03:38;96899.35;;;6.43;53.08
45991;BME280;31721;41.740;-88.000;2023-04-01T09:06:24;96902.46;;;6.30;53.52
45991;BME280;31721;41.740;-88.000;2023-04-01T09:09:09;96898.07;;;6.34;53.49
45991;BME280;31721;41.740;-88.000;2023-04-01T09:11:52;96882.23;;;6.24;53.36
45991;BME280;31721;41.740;-88.000;2023-04-01T09:14:42;96889.12;;;6.33;53.47
45991;BME280;31721;41.740;-88.000;2023-04-01T09:17:36;96900.93;;;6.25;53.66
45991;BME280;31721;41.740;-88.000;2023-04-01T09:20:26;96893.11;;;6.14;53.84
45991;BME280;31721;41.740;-88.000;2023-04-01T09:23:17;96894.21;;;6.19;53.73
45991;BME280;31721;41.740;-88.000;2023-04-01T09:26:01;96889.59;;;6.09;53.82
45991;BME280;31721;41.740;-88.000;2023-04-01T09:28:42;96888.44;;;5.84;53.81
45991;BME280;31721;41.740;-88.000;2023-04-01T09:31:25;96889.69;;;5.91;54.31
45991;BME280;31721;41.740;-88.000;2023-04-01T09:34:09;96888.28;;;6.14;54.14
45991;BME280;31721;41.740;-88.000;2023-04-01T09:36:45;96889.57;;;6.20;54.11
45991;BME280;31721;41.740;-88.000;2023-04-01T09:39:26;96890.51;;;6.43;54.37
45991;BME280;31721;41.740;-88.000;2023-04-01T09:42:15;96897.78;;;6.18;54.28
45991;BME280;31721;41.740;-88.000;2023-04-01T09:44:58;96912.33;;;5.99;54.40
45991;BME280;31721;41.740;-88.000;2023-04-01T09:47:45;96902.36;;;6.42;53.96
45991;BME280;31721;41.740;-88.000;2023-04-01T09:50:53;96893.69;;;5.99;54.32
45991;BME280;31721;41.740;-88.000;2023-04-01T09:53:39;96892.11;;;5.38;54.57
45991;BME280;31721;41.740;-88.000;2023-04-01T09:56:25;96904.88;;;5.62;54.61
45991;BME280;31721;41.740;-88.000;2023-04-01T10:03:37;96941.73;;;4.95;55.39
45991;BME280;31721;41.740;-88.000;2023-04-01T10:06:43;96949.07;;;4.78;55.72
45991;BME280;31721;41.740;-88.000;2023-04-01T10:09:55;96951.46;;;5.28;55.43
45991;BME280;31721;41.740;-88.000;2023-04-01T10:14:25;96975.44;;;5.15;55.71
45991;BME280;31721;41.740;-88.000;2023-04-01T10:22:05;96985.70;;;4.52;57.34
45991;BME280;31721;41.740;-88.000;2023-04-01T10:26:36;96996.86;;;4.38;57.49
45991;BME280;31721;41.740;-88.000;2023-04-01T10:29:26;97010.76;;;4.40;58.13
45991;BME280;31721;41.740;-88.000;2023-04-01T10:32:17;97012.89;;;3.85;58.99
45991;BME280;31721;41.740;-88.000;2023-04-01T10:35:04;97012.89;;;3.98;58.76
45991;BME280;31721;41.740;-88.000;2023-04-01T10:38:03;97010.73;;;3.77;58.93
45991;BME280;31721;41.740;-88.000;2023-04-01T10:40:57;97006.84;;;3.38;60.83
45991;BME280;31721;41.740;-88.000;2023-04-01T10:43:53;97008.95;;;3.75;59.30
45991;BME280;31721;41.740;-88.000;2023-04-01T10:47:32;97005.32;;;3.13;59.61
45991;BME280;31721;41.740;-88.000;2023-04-01T10:50:21;97014.06;;;3.09;59.43
45991;BME280;31721;41.740;-88.000;2023-04-01T10:53:10;97011.38;;;2.89;60.57
45991;BME280;31721;41.740;-88.000;2023-04-01T10:56:32;97017.87;;;3.00;60.22
45991;BME280;31721;41.740;-88.000;2023-04-01T10:59:21;97016.63;;;3.47;59.62
45991;BME280;31721;41.740;-88.000;2023-04-01T11:02:14;97012.89;;;3.37;60.01
45991;BME280;31721;41.740;-88.000;2023-04-01T11:05:24;96995.11;;;3.48;59.60
45991;BME280;31721;41.740;-88.000;2023-04-01T11:09:03;96986.99;;;3.38;59.93
45991;BME280;31721;41.740;-88.000;2023-04-01T11:12:05;96991.17;;;3.39;60.44
45991;BME280;31721;41.740;-88.000;2023-04-01T11:15:06;96990.87;;;3.22;60.54
45991;BME280;31721;41.740;-88.000;2023-04-01T11:18:16;96983.14;;;3.10;60.88
45991;BME280;31721;41.740;-88.000;2023-04-01T11:21:41;96979.27;;;3.04;61.90
45991;BME280;31721;41.740;-88.000;2023-04-01T11:24:34;96984.08;;;2.84;61.90
45991;BME280;31721;41.740;-88.000;2023-04-01T11:27:16;96985.88;;;2.74;61.22
45991;BME280;31721;41.740;-88.000;2023-04-01T11:30:00;96982.40;;;2.78;62.37
45991;BME280;31721;41.740;-88.000;2023-04-01T11:32:44;96975.46;;;2.86;62.00
45991;BME280;31721;41.740;-88.000;2023-04-01T11:35:34;96979.40;;;2.80;62.34
45991;BME280;31721;41.740;-88.000;2023-04-01T11:38:15;96980.34;;;2.89;62.88
45991;BME280;31721;41.740;-88.000;2023-04-01T11:40:51;96984.99;;;3.05;62.95
45991;BME280;31721;41.740;-88.000;2023-04-01T11:43:27;96984.22;;;3.08;63.00
45991;BME280;31721;41.740;-88.000;2023-04-01T11:46:02;96982.78;;;2.83;63.56
45991;BME280;31721;41.740;-88.000;2023-04-01T11:48:42;96982.24;;;2.91;63.23
45991;BME280;31721;41.740;-88.000;2023-04-01T11:51:43;96983.07;;;3.11;63.41
45991;BME280;31721;41.740;-88.000;2023-04-01T11:54:28;96978.96;;;2.96;63.19
45991;BME280;31721;41.740;-88.000;2023-04-01T11:57:06;96972.04;;;3.05;63.61
45991;BME280;31721;41.740;-88.000;2023-04-01T11:59:58;96979.84;;;2.93;63.79
45991;BME280;31721;41.740;-88.000;2023-04-01T12:02:39;96976.93;;;2.87;63.82
45991;BME280;31721;41.740;-88.000;2023-04-01T12:05:27;96985.52;;;3.08;63.90
45991;BME280;31721;41.740;-88.000;2023-04-01T12:08:07;96996.03;;;2.92;63.72
45991;BME280;31721;41.740;-88.000;2023-04-01T12:10:44;96990.67;;;2.70;63.99
45991;BME280;31721;41.740;-88.000;2023-04-01T12:13:24;96995.95;;;2.99;64.16
45991;BME280;31721;41.740;-88.000;2023-04-01T12:16:07;97001.84;;;3.05;64.22
45991;BME280;31721;41.740;-88.000;2023-04-01T12:18:46;96999.35;;;3.39;64.13
45991;BME280;31721;41.740;-88.000;2023-04-01T12:21:24;96993.59;;;3.03;64.67
45991;BME280;31721;41.740;-88.000;2023-04-01T12:24:25;97003.45;;;3.02;64.64
45991;BME280;31721;41.740;-88.000;2023-04-01T12:27:10;97011.60;;;3.26;64.39
45991;BME280;31721;41.740;-88.000;2023-04-01T12:29:54;97006.81;;;3.01;64.90
45991;BME280;31721;41.740;-88.000;2023-04-01T12:32:37;97015.43;;;2.91;64.06
45991;BME280;31721;41.740;-88.000;2023-04-01T12:35:20;97024.72;;;2.79;63.73
45991;BME280;31721;41.740;-88.000;2023-04-01T12:37:59;97024.42;;;2.18;64.51
45991;BME280;31721;41.740;-88.000;2023-04-01T12:40:51;97044.46;;;2.57;62.96
45991;BME280;31721;41.740;-88.000;2023-04-01T12:44:15;97046.51;;;2.61;62.79
45991;BME280;31721;41.740;-88.000;2023-04-01T12:47:03;97064.81;;;1.90;62.55
45991;BME280;31721;41.740;-88.000;2023-04-01T12:49:55;97075.88;;;2.16;62.56
45991;BME280;31721;41.740;-88.000;2023-04-01T12:52:35;97083.07;;;2.29;62.01
45991;BME280;31721;41.740;-88.000;2023-04-01T12:56:00;97089.45;;;2.26;60.64
45991;BME280;31721;41.740;-88.000;2023-04-01T12:59:00;97089.64;;;2.21;61.17
45991;BME280;31721;41.740;-88.000;2023-04-01T13:01:47;97095.54;;;2.47;60.03
45991;BME280;31721;41.740;-88.000;2023-04-01T13:04:35;97096.64;;;2.60;60.06
45991;BME280;31721;41.740;-88.000;2023-04-01T13:08:37;97100.54;;;2.29;60.27
45991;BME280;31721;41.740;-88.000;2023-04-01T13:11:13;97117.59;;;2.25;60.38
45991;BME280;31721;41.740;-88.000;2023-04-01T13:14:04;97129.42;;;2.36;59.95
45991;BME280;31721;41.740;-88.000;2023-04-01T13:16:40;97140.83;;;2.51;59.89
45991;BME280;31721;41.740;-88.000;2023-04-01T13:19:19;97136.80;;;2.29;59.36
45991;BME280;31721;41.740;-88.000;2023-04-01T13:21:56;97157.34;;;2.20;59.61
45991;BME280;31721;41.740;-88.000;2023-04-01T13:24:39;97155.81;;;2.25;59.21
45991;BME280;31721;41.740;-88.000;2023-04-01T13:27:17;97158.70;;;1.89;59.77
45991;BME280;31721;41.740;-88.000;2023-04-01T13:29:58;97166.14;;;2.02;60.28
45991;BME280;31721;41.740;-88.000;2023-04-01T13:32:34;97171.68;;;2.39;59.75
45991;BME280;31721;41.740;-88.000;2023-04-01T13:35:20;97180.89;;;2.43;58.95
45991;BME280;31721;41.740;-88.000;2023-04-01T13:38:03;97180.86;;;2.56;58.92
45991;BME280;31721;41.740;-88.000;2023-04-01T13:40:38;97193.54;;;2.22;59.47
45991;BME280;31721;41.740;-88.000;2023-04-01T13:43:15;97197.91;;;1.93;59.82
45991;BME280;31721;41.740;-88.000;2023-04-01T13:46:05;97206.28;;;2.14;59.39
45991;BME280;31721;41.740;-88.000;2023-04-01T13:48:50;97215.43;;;2.44;59.42
45991;BME280;31721;41.740;-88.000;2023-04-01T13:51:33;97220.81;;;2.17;59.93
45991;BME280;31721;41.740;-88.000;2023-04-01T13:54:26;97222.26;;;2.20;60.01